Time;durP1;ratioP1;P1;durP2;ratioP2;P2;SDS_P1;SDS_P2;PMS_P1;PMS_P2;Temp;Humidity;BMP_temperature;BMP_pressure;BME280_temperature;BME280_humidity;BME280_pressure;Samples;Min_cycle;Max_cycle;Signal;HPM_P1;HPM_P2
2023/01/10 00:00:34;;;;;;;21.20;4.50;;;;;;;;;;5067110;28;20462;-67
2023/01/10 00:03:04;;;;;;;17.38;3.58;;;;;;;;;;5048842;28;20559;-67
2023/01/10 00:05:30;;;;;;;15.45;2.53;;;;;;;;;;5066839;28;20769;-67
2023/01/10 00:07:57;;;;;;;12.38;2.85;;;;;;;;;;5048494;28;20040;-67
2023/01/10 00:10:24;;;;;;;18.67;3.72;;;;;;;;;;5066773;28;20044;-67
2023/01/10 00:15:34;;;;;;;13.73;4.85;;;;;;;;;;5048517;28;20071;-67
2023/01/10 00:18:00;;;;;;;13.30;2.90;;;;;;;;;;5048034;28;20044;-67
2023/01/10 00:20:26;;;;;;;17.73;3.75;;;;;;;;;;5038848;28;20053;-67
2023/01/10 00:22:52;;;;;;;12.27;3.40;;;5.90;99.90;;;;;;5044788;28;20055;-67
2023/01/10 00:25:19;;;;;;;15.60;3.10;;;6.00;99.90;;;;;;5066265;28;20032;-67
2023/01/10 00:27:48;;;;;;;20.20;3.22;;;;;;;;;;5048014;28;20106;-66
2023/01/10 00:30:14;;;;;;;14.55;3.63;;;;;;;;;;5068224;28;20055;-67
2023/01/10 00:32:41;;;;;;;16.20;3.17;;;;;;;;;;5051719;28;20044;-67
2023/01/10 00:35:08;;;;;;;20.45;3.22;;;;;;;;;;5051240;28;20579;-67
2023/01/10 00:37:34;;;;;;;24.10;3.83;;;;;;;;;;5069461;28;20545;-67
2023/01/10 00:40:00;;;;;;;14.48;3.33;;;;;;;;;;5051616;28;20452;-67
2023/01/10 00:45:10;;;;;;;19.40;3.92;;;;;;;;;;5069243;28;20463;-67
2023/01/10 00:47:37;;;;;;;18.92;4.00;;;;;;;;;;5069137;28;20093;-67
2023/01/10 00:50:07;;;;;;;16.85;3.47;;;6.40;99.90;;;;;;5051221;28;20177;-66
2023/01/10 00:52:33;;;;;;;21.63;3.42;;;;;;;;;;5069224;28;20057;-67
2023/01/10 00:54:59;;;;;;;17.67;3.17;;;6.20;99.90;;;;;;5069208;28;20046;-67
2023/01/10 00:57:25;;;;;;;24.23;3.63;;;;;;;;;;5068993;28;20044;-67
2023/01/10 00:59:51;;;;;;;14.68;2.97;;;;;;;;;;5050919;28;20131;-67
2023/01/10 01:02:17;;;;;;;17.02;3.70;;;;;;;;;;5050771;28;20044;-68
2023/01/10 01:04:42;;;;;;;16.40;3.90;;;;;;;;;;5069205;28;20032;-67
2023/01/10 01:07:08;;;;;;;19.35;3.17;;;;;;;;;;5051066;28;20123;-67
2023/01/10 01:10:25;;;;;;;13.75;3.55;;;;;;;;;;5050611;28;20461;-67
2023/01/10 01:12:20;;;;;;;15.20;2.97;;;;;;;;;;5050578;28;20090;-68
2023/01/10 01:14:46;;;;;;;16.98;2.95;;;;;;;;;;5068758;28;20075;-67
2023/01/10 01:17:12;;;;;;;19.67;4.15;;;;;;;;;;5068957;28;20517;-67
2023/01/10 01:19:38;;;;;;;13.98;3.33;;;;;;;;;;5050576;28;20146;-67
2023/01/10 01:22:04;;;;;;;16.17;3.00;;;6.10;99.90;;;;;;5050975;28;20048;-67
2023/01/10 01:24:30;;;;;;;16.58;3.10;;;;;;;;;;5050707;28;20075;-67
2023/01/10 01:26:56;;;;;;;13.27;3.28;;;;;;;;;;5050982;28;20086;-67
2023/01/10 01:29:23;;;;;;;19.67;3.80;;;;;;;;;;5050599;28;20665;-67
2023/01/10 01:31:49;;;;;;;13.75;3.35;;;;;;;;;;5068731;28;20637;-67
2023/01/10 01:34:15;;;;;;;20.38;3.72;;;;;;;;;;5068978;28;20123;-67
2023/01/10 01:36:41;;;;;;;17.45;3.40;;;;;;;;;;5068658;28;20051;-67
2023/01/10 01:39:07;;;;;;;14.43;3.33;;;;;;;;;;5050744;28;20530;-67
2023/01/10 01:44:19;;;;;;;15.82;2.92;;;;;;;;;;5055819;28;20514;-67
2023/01/10 01:46:49;;;;;;;22.90;3.10;;;;;;;;;;5068280;28;20045;-67
2023/01/10 01:49:19;;;;;;;15.02;3.17;;;;;;;;;;5050019;28;20052;-67
2023/01/10 01:51:46;;;;;;;18.48;3.72;;;;;;;;;;5049936;28;20052;-67
2023/01/10 01:54:12;;;;;;;27.92;3.20;;;;;;;;;;5067829;28;20051;-67
2023/01/10 01:56:44;;;;;;;22.27;3.80;;;;;;;;;;5067852;28;20044;-67
2023/01/10 01:59:15;;;;;;;15.52;2.95;;;;;;;;;;5068011;28;20119;-67
2023/01/10 02:01:41;;;;;;;14.18;2.75;;;;;;;;;;5067923;28;20043;-66
2023/01/10 02:04:10;;;;;;;18.52;3.10;;;;;;;;;;5049609;28;20121;-67
2023/01/10 02:06:36;;;;;;;14.13;3.53;;;;;;;;;;5049742;28;20099;-67
2023/01/10 02:09:06;;;;;;;17.23;3.42;;;;;;;;;;5066764;28;20105;-66
2023/01/10 02:11:32;;;;;;;15.80;3.83;;;;;;;;;;5049257;28;20047;-67
2023/01/10 02:13:58;;;;;;;18.27;3.70;;;;;;;;;;5032927;28;20040;-67
2023/01/10 02:16:24;;;;;;;21.77;3.45;;;;;;;;;;5053236;28;20502;-67
2023/01/10 02:18:50;;;;;;;19.15;4.13;;;;;;;;;;5067404;28;20041;-67
2023/01/10 02:21:26;;;;;;;14.95;2.83;;;;;;;;;;5067663;28;20037;-67
2023/01/10 02:24:06;;;;;;;8.63;3.30;;;;;;;;;;5067458;28;20040;-67
2023/01/10 02:26:48;;;;;;;17.65;3.22;;;;;;;;;;5049345;28;20044;-67
2023/01/10 02:29:14;;;;;;;24.75;3.35;;;;;;;;;;5049519;28;20856;-67
2023/01/10 02:31:55;;;;;;;15.82;3.30;;;;;;;;;;5049071;28;20060;-67
2023/01/10 02:34:28;;;;;;;16.60;3.47;;;;;;;;;;5049195;28;20418;-67
2023/01/10 02:36:59;;;;;;;15.52;3.67;;;;;;;;;;5048913;28;20060;-67
2023/01/10 02:39:26;;;;;;;14.10;3.47;;;;;;;;;;5066995;28;20052;-67
2023/01/10 02:42:06;;;;;;;19.90;4.13;;;;;;;;;;5049141;28;20051;-67
2023/01/10 02:44:56;;;;;;;18.08;3.10;;;;;;;;;;5049001;28;20052;-66
2023/01/10 02:47:22;;;;;;;14.55;3.15;;;;;;;;;;5049143;28;20052;-67
2023/01/10 02:49:49;;;;;;;25.92;4.30;;;;;;;;;;5066900;28;20093;-67
2023/01/10 02:52:20;;;;;;;9.98;2.33;;;;;;;;;;5048783;28;20440;-67
2023/01/10 02:54:47;;;;;;;14.95;3.30;;;;;;;;;;5032289;28;20048;-67
2023/01/10 02:57:19;;;;;;;9.02;2.22;;;;;;;;;;5049039;28;20048;-66
2023/01/10 03:00:08;;;;;;;16.50;2.67;;;;;;;;;;5049214;28;20450;-67
2023/01/10 03:02:52;;;;;;;15.77;3.92;;;;;;;;;;5056371;28;20130;-67
2023/01/10 03:05:25;;;;;;;13.40;2.90;;;;;;;;;;5048737;28;20510;-67
2023/01/10 03:07:51;;;;;;;15.82;2.80;;;;;;;;;;5048773;28;20076;-67
2023/01/10 03:10:23;;;;;;;12.95;2.47;;;;;;;;;;5048479;28;20141;-67
2023/01/10 03:12:54;;;;;;;9.45;2.95;;;;;;;;;;5048588;28;20051;-67
2023/01/10 03:15:20;;;;;;;12.85;2.92;;;;;;;;;;5066664;28;20499;-67
2023/01/10 03:17:49;;;;;;;14.13;2.83;;;;;;;;;;5048406;28;20045;-67
2023/01/10 03:20:16;;;;;;;11.20;3.03;;;;;;;;;;5066389;28;20036;-67
2023/01/10 03:22:43;;;;;;;18.88;3.17;;;;;;;;;;5066730;28;20040;-67
2023/01/10 03:25:12;;;;;;;13.13;2.88;;;6.80;99.90;;;;;;5066635;28;20044;-66
2023/01/10 03:28:04;;;;;;;15.90;3.15;;;;;;;;;;5048341;28;20837;-67
2023/01/10 03:30:53;;;;;;;19.65;3.10;;;6.40;99.90;;;;;;5043692;28;20574;-67
2023/01/10 03:33:24;;;;;;;17.67;3.60;;;6.50;99.90;;;;;;5066670;28;20040;-67
2023/01/10 03:36:06;;;;;;;16.52;3.33;;;;;;;;;;5066639;28;20055;-67
2023/01/10 03:38:41;;;;;;;18.67;3.35;;;;;;;;;;5048464;28;20071;-68
2023/01/10 03:41:11;;;;;;;19.20;3.85;;;;;;;;;;5048412;28;20040;-66
2023/01/10 03:46:37;;;;;;;21.73;4.80;;;;;;;;;;5048730;28;20091;-67
2023/01/10 03:49:05;;;;;;;16.88;3.90;;;;;;;;;;5032164;28;20170;-67
2023/01/10 03:51:31;;;;;;;19.73;3.03;;;;;;;;;;5048509;28;20090;-67
2023/01/10 03:53:59;;;;;;;21.15;4.18;;;;;;;;;;5066655;28;20103;-67
2023/01/10 03:56:25;;;;;;;17.52;3.80;;;;;;;;;;5048638;28;20490;-67
2023/01/10 03:58:51;;;;;;;16.58;3.88;;;;;;;;;;5066496;28;20445;-67
2023/01/10 04:01:18;;;;;;;18.33;3.55;;;;;;;;;;5048126;28;20048;-67
2023/01/10 04:03:44;;;;;;;20.27;5.05;;;;;;;;;;5048564;28;20044;-67
2023/01/10 04:06:10;;;;;;;20.13;3.65;;;;;;;;;;5052239;28;20051;-67
2023/01/10 04:08:36;;;;;;;18.63;4.85;;;;;;;;;;5051918;28;20102;-66
2023/01/10 04:11:03;;;;;;;21.25;3.13;;;;;;;;;;5069793;28;20048;-68
2023/01/10 04:13:29;;;;;;;14.35;3.70;;;;;;;;;;5051973;28;20049;-66
2023/01/10 04:15:55;;;;;;;16.38;3.47;;;;;;;;;;5069949;28;20036;-67
2023/01/10 04:18:21;;;;;;;14.27;3.85;;;;;;;;;;5051543;28;20105;-66
2023/01/10 04:20:47;;;;;;;29.23;4.25;;;;;;;;;;5051695;28;20067;-66
2023/01/10 04:23:12;;;;;;;17.77;4.18;;;6.70;99.90;;;;;;5069844;28;20640;-66
2023/01/10 04:25:38;;;;;;;16.63;3.90;;;;;;;;;;5069833;28;20051;-67
2023/01/10 04:28:04;;;;;;;18.95;5.03;;;;;;;;;;5069972;28;20071;-67
2023/01/10 04:30:30;;;;;;;22.88;4.10;;;;;;;;;;5051936;28;20610;-67
2023/01/10 04:32:56;;;;;;;19.70;4.45;;;;;;;;;;5070035;28;20080;-67
2023/01/10 04:35:22;;;;;;;18.60;4.72;;;;;;;;;;5069846;28;20044;-66
2023/01/10 04:37:48;;;;;;;18.80;4.60;;;;;;;;;;5051961;28;20105;-67
2023/01/10 04:40:18;;;;;;;22.40;4.80;;;;;;;;;;5069972;28;20516;-67
2023/01/10 04:42:44;;;;;;;22.52;4.63;;;;;;;;;;5069574;28;20048;-67
2023/01/10 04:45:12;;;;;;;22.45;4.50;;;;;;;;;;5051681;28;20044;-66
2023/01/10 04:47:38;;;;;;;20.35;5.07;;;;;;;;;;5051432;28;20475;-67
2023/01/10 04:50:04;;;;;;;21.23;4.65;;;;;;;;;;5051262;28;20148;-67
2023/01/10 04:52:30;;;;;;;20.55;3.90;;;;;;;;;;5069445;28;20040;-66
2023/01/10 04:54:56;;;;;;;18.30;4.25;;;;;;;;;;5069508;28;20396;-67
2023/01/10 04:57:22;;;;;;;17.90;4.20;;;;;;;;;;5051331;28;20135;-67
2023/01/10 04:59:48;;;;;;;21.92;3.92;;;;;;;;;;5069210;28;20045;-67
2023/01/10 05:02:14;;;;;;;17.40;4.00;;;6.60;99.90;;;;;;5051173;28;20036;-66
2023/01/10 05:04:40;;;;;;;15.77;3.78;;;;;;;;;;5069210;28;20098;-67
2023/01/10 05:07:06;;;;;;;20.45;5.00;;;;;;;;;;5069641;28;20048;-67
2023/01/10 05:09:32;;;;;;;19.33;3.67;;;;;;;;;;5069607;28;20059;-67
2023/01/10 05:11:58;;;;;;;24.40;4.95;;;;;;;;;;5051365;28;20577;-67
2023/01/10 05:14:23;;;;;;;24.15;4.43;;;6.50;99.90;;;;;;5069312;28;20049;-67
2023/01/10 05:16:49;;;;;;;19.92;3.80;;;;;;;;;;5050760;28;20044;-66
2023/01/10 05:19:15;;;;;;;15.82;4.05;;;;;;;;;;5051571;28;20127;-67
2023/01/10 05:21:41;;;;;;;19.40;4.22;;;;;;;;;;5051694;28;20040;-67
2023/01/10 05:24:08;;;;;;;19.92;3.97;;;;;;;;;;5051840;28;20515;-67
2023/01/10 05:26:34;;;;;;;15.85;3.97;;;6.80;99.90;;;;;;5051532;28;20041;-66
2023/01/10 05:29:00;;;;;;;22.13;4.22;;;;;;;;;;5051424;28;20052;-67
2023/01/10 05:31:26;;;;;;;19.58;3.90;;;;;;;;;;5051162;28;20576;-67
2023/01/10 05:33:52;;;;;;;15.10;3.83;;;;;;;;;;5050808;28;20048;-66
2023/01/10 05:36:19;;;;;;;19.10;4.07;;;;;;;;;;5050569;28;20406;-66
2023/01/10 05:38:44;;;;;;;19.25;3.80;;;6.60;99.90;;;;;;5050868;28;20498;-66
2023/01/10 05:41:11;;;;;;;8.10;4.05;;;;;;;;;;5050652;28;20036;-68
2023/01/10 05:43:36;;;;;;;11.10;2.40;;;6.70;99.90;;;;;;5068897;28;20121;-67
2023/01/10 05:46:03;;;;;;;16.85;2.45;;;;;;;;;;5068625;28;20506;-66
2023/01/10 05:48:29;;;;;;;8.88;2.58;;;;;;;;;;5068540;28;20127;-66
2023/01/10 05:50:56;;;;;;;8.93;2.17;;;6.70;99.90;;;;;;5050566;28;20147;-67
2023/01/10 05:53:22;;;;;;;8.20;2.35;;;;;;;;;;5050385;28;20664;-66
2023/01/10 05:56:02;;;;;;;8.45;1.90;;;;;;;;;;5050057;28;20041;-66
2023/01/10 05:58:28;;;;;;;6.22;1.67;;;;;;;;;;5068111;28;20552;-66
2023/01/10 06:00:55;;;;;;;8.05;1.92;;;;;;;;;;5049823;28;20051;-67
2023/01/10 06:03:22;;;;;;;15.05;3.22;;;;;;;;;;5067928;28;20105;-67
2023/01/10 06:05:48;;;;;;;11.13;3.20;;;;;;;;;;5049950;28;20091;-66
2023/01/10 06:08:14;;;;;;;18.05;3.60;;;;;;;;;;5068140;28;20792;-67
2023/01/10 06:10:40;;;;;;;13.10;3.13;;;;;;;;;;5068298;28;20072;-66
2023/01/10 06:13:05;;;;;;;20.55;3.50;;;;;;;;;;5067819;28;20047;-66
2023/01/10 06:15:33;;;;;;;18.35;4.38;;;;;;;;;;5050037;28;20132;-67
2023/01/10 06:17:59;;;;;;;18.83;3.38;;;;;;;;;;5040678;28;20045;-66
2023/01/10 06:20:25;;;;;;;17.63;3.70;;;;;;;;;;5044994;28;20056;-67
2023/01/10 06:22:51;;;;;;;20.80;4.03;;;;;;;;;;5049970;28;20036;-66
2023/01/10 06:25:17;;;;;;;15.05;4.57;;;;;;;;;;5067920;28;20051;-66
2023/01/10 06:27:43;;;;;;;20.77;3.63;;;;;;;;;;5067259;28;20040;-66
2023/01/10 06:30:11;;;;;;;19.27;4.38;;;;;;;;;;5067693;28;20469;-66
2023/01/10 06:32:37;;;;;;;16.83;4.00;;;;;;;;;;5049680;28;20406;-66
2023/01/10 06:35:03;;;;;;;27.38;3.90;;;;;;;;;;5067745;28;20036;-67
2023/01/10 06:37:29;;;;;;;25.05;4.43;;;;;;;;;;5049240;28;20395;-66
2023/01/10 06:39:55;;;;;;;27.92;4.65;;;;;;;;;;5049648;28;20565;-67
2023/01/10 06:42:21;;;;;;;23.55;4.40;;;;;;;;;;5049042;28;20079;-66
2023/01/10 06:44:47;;;;;;;25.88;5.13;;;;;;;;;;5067414;28;20072;-66
2023/01/10 06:47:13;;;;;;;17.30;4.43;;;;;;;;;;5049839;28;20052;-67
2023/01/10 06:49:39;;;;;;;28.45;5.63;;;6.10;99.90;;;;;;5049210;28;20098;-67
2023/01/10 06:52:05;;;;;;;34.72;5.22;;;;;;;;;;5049289;28;20521;-67
2023/01/10 06:54:31;;;;;;;24.15;4.95;;;;;;;;;;5067088;28;20529;-66
2023/01/10 06:56:57;;;;;;;26.67;5.22;;;;;;;;;;5049082;28;20049;-66
2023/01/10 06:59:23;;;;;;;29.58;5.60;;;;;;;;;;5066859;28;20056;-66
2023/01/10 07:01:49;;;;;;;28.23;6.50;;;;;;;;;;5036729;28;20491;-66
2023/01/10 07:04:15;;;;;;;31.67;5.13;;;;;;;;;;5017716;28;20037;-67
2023/01/10 07:06:41;;;;;;;26.08;5.95;;;;;;;;;;5051850;28;20569;-66
2023/01/10 07:09:08;;;;;;;26.52;5.18;;;;;;;;;;5035261;28;20131;-66
2023/01/10 07:11:34;;;;;;;26.45;5.88;;;;;;;;;;5053920;28;20056;-66
2023/01/10 07:14:00;;;;;;;23.58;4.43;;;;;;;;;;5046660;28;20375;-66
2023/01/10 07:16:26;;;;;;;28.00;5.68;;;;;;;;;;5049907;28;20036;-66
2023/01/10 07:18:52;;;;;;;22.73;5.25;;;;;;;;;;5031133;28;20502;-67
2023/01/10 07:21:18;;;;;;;20.25;5.05;;;;;;;;;;5063131;28;20402;-66
2023/01/10 07:23:51;;;;;;;25.42;5.75;;;;;;;;;;5058042;28;20040;-68
2023/01/10 07:26:18;;;;;;;20.50;4.93;;;;;;;;;;5041694;28;20041;-66
2023/01/10 07:28:49;;;;;;;28.33;5.55;;;6.30;99.90;;;;;;5066457;28;20127;-66
2023/01/10 07:31:16;;;;;;;23.48;6.35;;;;;;;;;;5050646;28;20052;-65
2023/01/10 07:33:42;;;;;;;25.35;5.97;;;;;;;;;;5053896;28;20067;-67
2023/01/10 07:36:08;;;;;;;25.92;6.35;;;;;;;;;;5042314;28;20048;-67
2023/01/10 07:38:34;;;;;;;26.02;5.20;;;;;;;;;;5045981;28;20236;-67
2023/01/10 07:41:03;;;;;;;28.45;5.40;;;;;;;;;;5041991;28;20551;-67
2023/01/10 07:43:29;;;;;;;23.50;5.28;;;;;;;;;;5036732;28;20158;-67
2023/01/10 07:45:59;;;;;;;28.17;5.72;;;;;;;;;;5035466;28;20513;-67
2023/01/10 07:48:25;;;;;;;18.38;4.25;;;;;;;;;;5045914;28;20101;-67
2023/01/10 07:50:55;;;;;;;34.60;5.45;;;;;;;;;;5045896;28;20056;-67
2023/01/10 07:53:21;;;;;;;24.55;4.50;;;;;;;;;;5051081;28;20125;-66
2023/01/10 07:55:47;;;;;;;19.58;5.60;;;;;;;;;;5068257;28;20792;-67
2023/01/10 07:58:13;;;;;;;24.75;5.82;;;;;;;;;;5050141;28;20162;-67
2023/01/10 08:00:39;;;;;;;21.10;5.18;;;;;;;;;;5070538;28;20041;-67
2023/01/10 08:03:05;;;;;;;24.02;4.63;;;;;;;;;;5065054;28;20135;-67
2023/01/10 08:05:31;;;;;;;30.95;4.15;;;;;;;;;;5060969;28;20047;-67
2023/01/10 08:08:03;;;;;;;32.42;5.18;;;;;;;;;;5065912;28;20045;-67
2023/01/10 08:10:29;;;;;;;25.88;5.03;;;;;;;;;;5040804;28;20050;-68
2023/01/10 08:12:54;;;;;;;22.33;4.70;;;;;;;;;;5044669;28;20044;-68
2023/01/10 08:15:20;;;;;;;29.48;4.38;;;5.70;99.90;;;;;;5040260;28;20068;-67
2023/01/10 08:17:47;;;;;;;25.13;4.93;;;;;;;;;;5065600;28;20040;-67
2023/01/10 08:20:13;;;;;;;24.10;5.45;;;;;;;;;;5075076;28;20098;-67
2023/01/10 08:22:39;;;;;;;30.75;5.15;;;;;;;;;;5035150;28;20048;-67
2023/01/10 08:25:05;;;;;;;24.92;5.22;;;;;;;;;;5060081;28;20049;-67
2023/01/10 08:27:31;;;;;;;30.80;4.68;;;;;;;;;;5060883;28;20037;-68
2023/01/10 08:29:57;;;;;;;27.30;5.45;;;;;;;;;;5052415;28;20192;-67
2023/01/10 08:32:23;;;;;;;20.48;4.88;;;;;;;;;;5059974;28;20075;-67
2023/01/10 08:34:49;;;;;;;24.17;4.93;;;;;;;;;;5060971;28;20079;-67
2023/01/10 08:37:14;;;;;;;21.55;4.53;;;;;;;;;;5053197;28;20131;-68
2023/01/10 08:39:40;;;;;;;28.55;5.78;;;;;;;;;;5069567;28;20045;-67
2023/01/10 08:42:06;;;;;;;25.58;5.05;;;;;;;;;;5039474;28;20045;-67
2023/01/10 08:44:32;;;;;;;22.98;4.80;;;6.40;99.90;;;;;;5049969;28;20052;-67
2023/01/10 08:46:58;;;;;;;24.52;5.53;;;;;;;;;;5062683;28;20526;-67
2023/01/10 08:49:24;;;;;;;31.20;5.70;;;;;;;;;;5059973;28;20048;-67
2023/01/10 08:51:50;;;;;;;28.77;4.95;;;;;;;;;;5036630;28;20095;-66
2023/01/10 08:54:16;;;;;;;31.63;6.90;;;;;;;;;;5059555;28;20123;-67
2023/01/10 08:56:42;;;;;;;21.70;5.10;;;;;;;;;;5062576;28;20037;-67
2023/01/10 08:59:08;;;;;;;27.88;5.80;;;;;;;;;;5061473;28;20043;-67
2023/01/10 09:01:34;;;;;;;23.60;4.97;;;;;;;;;;5033343;28;20499;-68
2023/01/10 09:04:00;;;;;;;26.17;4.97;;;6.70;99.90;;;;;;5073109;28;20048;-68
2023/01/10 09:06:25;;;;;;;19.73;4.63;;;;;;;;;;5060742;28;20456;-67
2023/01/10 09:08:51;;;;;;;25.27;5.20;;;6.80;99.90;;;;;;5048697;28;20124;-67
2023/01/10 09:11:17;;;;;;;27.92;4.97;;;;;;;;;;5045140;28;20486;-67
2023/01/10 09:13:43;;;;;;;26.05;5.07;;;;;;;;;;5044398;28;20044;-67
2023/01/10 09:16:09;;;;;;;22.70;4.65;;;;;;;;;;5038116;28;20198;-67
2023/01/10 09:18:35;;;;;;;35.60;6.93;;;;;;;;;;5065819;28;20047;-66
2023/01/10 09:21:02;;;;;;;18.00;5.13;;;;;;;;;;5038275;28;20514;-67
2023/01/10 09:23:28;;;;;;;19.08;4.50;;;;;;;;;;5070004;28;20044;-67
2023/01/10 09:25:57;;;;;;;25.40;4.50;;;;;;;;;;5038283;28;20552;-67
2023/01/10 09:28:23;;;;;;;21.38;4.60;;;;;;;;;;5044668;28;20041;-67
2023/01/10 09:30:50;;;;;;;24.20;4.35;;;;;;;;;;5056297;28;20197;-67
2023/01/10 09:33:16;;;;;;;23.42;5.68;;;;;;;;;;5014983;28;20056;-68
2023/01/10 09:35:43;;;;;;;26.60;4.85;;;;;;;;;;5068915;28;20040;-68
2023/01/10 09:38:14;;;;;;;24.52;4.85;;;;;;;;;;5029951;28;20075;-68
2023/01/10 09:40:50;;;;;;;17.13;4.85;;;;;;;;;;5060645;28;20182;-67
2023/01/10 09:43:16;;;;;;;;;;;;;;;;;;5020510;28;20044;-68
2023/01/10 09:45:56;;;;;;;17.73;4.97;;;7.40;99.90;;;;;;5059734;28;19928;-67
2023/01/10 09:48:25;;;;;;;21.92;4.55;;;;;;;;;;5040325;28;20056;-65
2023/01/10 09:51:03;;;;;;;22.33;3.78;;;7.60;99.90;;;;;;5036862;28;20137;-66
2023/01/10 09:53:30;;;;;;;19.98;4.35;;;;;;;;;;5033756;28;20051;-67
2023/01/10 09:55:58;;;;;;;19.90;4.75;;;;;;;;;;5048781;28;20041;-67
2023/01/10 09:58:26;;;;;;;26.90;4.60;;;;;;;;;;5032348;28;20049;-65
2023/01/10 10:00:57;;;;;;;25.42;4.60;;;;;;;;;;5057749;28;20048;-65
2023/01/10 10:03:42;;;;;;;23.83;4.75;;;;;;;;;;5071667;28;20044;-65
2023/01/10 10:06:11;;;;;;;18.57;4.53;;;;;;;;;;5048685;28;20131;-67
2023/01/10 10:08:37;;;;;;;27.98;4.50;;;;;;;;;;5067918;28;20371;-66
2023/01/10 10:11:19;;;;;;;23.80;5.18;;;;;;;;;;5063573;28;20503;-68
2023/01/10 10:13:58;;;;;;;28.17;5.10;;;7.40;99.90;;;;;;5035501;28;20044;-66
2023/01/10 10:16:42;;;;;;;19.33;4.18;;;;;;;;;;5072774;28;20045;-64
2023/01/10 10:19:21;;;;;;;19.98;4.50;;;;;;;;;;5067353;28;20052;-64
2023/01/10 10:22:02;;;;;;;27.67;5.25;;;;;;;;;;5049941;28;20063;-63
2023/01/10 10:24:28;;;;;;;25.20;8.52;;;;;;;;;;5055739;28;20040;-66
2023/01/10 10:27:09;;;;;;;27.02;5.93;;;;;;;;;;5043849;28;20040;-66
2023/01/10 10:29:43;;;;;;;29.10;6.63;;;7.60;99.90;;;;;;5037154;28;20160;-63
2023/01/10 10:32:09;;;;;;;29.58;6.70;;;;;;;;;;5068319;28;20080;-63
2023/01/10 10:35:01;;;;;;;30.48;7.03;;;7.30;99.90;;;;;;5070199;28;20070;-64
2023/01/10 10:37:32;;;;;;;28.73;7.22;;;7.40;99.90;;;;;;5037592;28;20142;-64
2023/01/10 10:40:07;;;;;;;26.98;6.88;;;;;;;;;;5040920;28;20070;-64
2023/01/10 10:42:37;;;;;;;28.60;8.18;;;7.40;99.90;;;;;;5060149;28;20041;-64
2023/01/10 10:45:05;;;;;;;26.90;7.60;;;;;;;;;;5049189;28;20052;-64
2023/01/10 10:47:35;;;;;;;25.50;7.40;;;7.60;99.90;;;;;;5070745;28;20044;-62
2023/01/10 10:50:25;;;;;;;28.33;9.32;;;;;;;;;;5049189;28;20045;-63
2023/01/10 10:52:51;;;;;;;35.45;8.63;;;;;;;;;;5052420;28;20168;-65
2023/01/10 10:55:18;;;;;;;29.17;7.88;;;;;;;;;;5055722;28;20140;-64
2023/01/10 10:57:45;;;;;;;24.95;7.90;;;;;;;;;;5060886;28;20091;-64
2023/01/10 11:00:17;;;;;;;27.42;8.27;;;;;;;;;;5063236;28;20098;-63
2023/01/10 11:02:46;;;;;;;27.63;8.30;;;;;;;;;;5061835;28;20089;-64
2023/01/10 11:05:25;;;;;;;23.45;8.57;;;;;;;;;;5061568;28;20446;-62
2023/01/10 11:07:53;;;;;;;24.30;8.75;;;;;;;;;;5063815;28;20041;-64
2023/01/10 11:10:34;;;;;;;32.67;8.40;;;;;;;;;;5048709;28;20044;-64
2023/01/10 11:13:01;;;;;;;27.85;7.78;;;;;;;;;;5055481;28;20451;-64
2023/01/10 11:15:38;;;;;;;33.22;8.05;;;;;;;;;;5062347;28;20098;-63
2023/01/10 11:18:05;;;;;;;36.15;10.05;;;;;;;;;;5064083;28;20057;-64
2023/01/10 11:20:31;;;;;;;27.15;8.88;;;;;;;;;;5045216;28;20055;-64
2023/01/10 11:22:58;;;;;;;32.53;8.50;;;;;;;;;;5068051;28;20040;-64
2023/01/10 11:25:23;;;;;;;25.50;7.10;;;;;;;;;;5066866;28;20123;-61
2023/01/10 11:27:51;;;;;;;30.75;6.78;;;;;;;;;;5076628;28;20139;-64
2023/01/10 11:30:20;;;;;;;31.58;6.57;;;;;;;;;;5066196;28;20053;-62
2023/01/10 11:32:57;;;;;;;29.65;6.65;;;;;;;;;;5066715;28;20856;-63
2023/01/10 11:35:37;;;;;;;24.85;6.53;;;;;;;;;;5048905;28;20045;-60
2023/01/10 11:38:17;;;;;;;29.80;7.30;;;;;;;;;;5035128;28;20055;-63
2023/01/10 11:40:55;;;;;;;19.17;6.20;;;;;;;;;;5066542;28;20040;-60
2023/01/10 11:43:24;;;;;;;23.63;6.65;;;;;;;;;;5066753;28;20040;-62
2023/01/10 11:46:01;;;;;;;24.20;5.97;;;;;;;;;;5066733;28;20380;-61
2023/01/10 11:48:27;;;;;;;26.45;7.90;;;;;;;;;;5066800;28;20044;-64
2023/01/10 11:50:54;;;;;;;22.85;6.10;;;;;;;;;;5052505;28;20048;-61
2023/01/10 11:53:36;;;;;;;30.80;7.18;;;;;;;;;;5046779;28;20037;-61
2023/01/10 11:56:02;;;;;;;28.25;6.20;;;;;;;;;;5051493;28;20044;-66
2023/01/10 11:58:33;;;;;;;27.55;5.63;;;;;;;;;;5055794;28;20521;-61
2023/01/10 12:00:59;;;;;;;26.55;7.10;;;;;;;;;;5063949;28;20049;-61
2023/01/10 12:03:28;;;;;;;34.05;7.72;;;;;;;;;;5051963;28;20037;-63
2023/01/10 12:05:59;;;;;;;25.50;6.80;;;;;;;;;;5052484;28;20084;-62
2023/01/10 12:08:28;;;;;;;34.85;6.35;;;7.10;99.90;;;;;;5052819;28;20045;-61
2023/01/10 12:11:07;;;;;;;22.63;5.68;;;;;;;;;;5054596;28;20044;-61
2023/01/10 12:13:52;;;;;;;22.42;5.05;;;;;;;;;;5062119;28;20069;-63
2023/01/10 12:16:25;;;;;;;27.42;5.57;;;7.20;99.90;;;;;;5035402;28;20048;-63
2023/01/10 12:18:53;;;;;;;25.75;6.13;;;7.40;99.90;;;;;;5062515;28;20076;-62
2023/01/10 12:21:45;;;;;;;29.23;6.22;;;;;;;;;;5066247;28;20596;-59
2023/01/10 12:24:16;;;;;;;29.08;5.70;;;;;;;;;;5062568;28;20045;-65
2023/01/10 12:26:43;;;;;;;22.23;5.57;;;;;;;;;;5051395;28;20052;-65
2023/01/10 12:29:12;;;;;;;23.17;5.65;;;;;;;;;;5069914;28;20033;-65
2023/01/10 12:31:40;;;;;;;20.55;5.90;;;;;;;;;;5069731;28;20084;-67
2023/01/10 12:34:18;;;;;;;22.17;6.15;;;;;;;;;;5052206;28;20060;-64
2023/01/10 12:36:50;;;;;;;19.02;5.82;;;;;;;;;;5070224;28;20597;-64
2023/01/10 12:39:24;;;;;;;29.90;4.85;;;;;;;;;;5069737;28;20075;-64
2023/01/10 12:44:44;;;;;;;27.33;6.72;;;;;;;;;;5069559;28;20036;-63
2023/01/10 12:47:17;;;;;;;24.80;6.35;;;;;;;;;;5070156;28;20048;-61
2023/01/10 12:49:55;;;;;;;30.52;7.32;;;;;;;;;;5069973;28;20055;-61
2023/01/10 12:52:24;;;;;;;26.38;7.05;;;;;;;;;;5069905;28;20503;-61
2023/01/10 12:54:50;;;;;;;26.58;5.80;;;;;;;;;;5051722;28;20063;-59
2023/01/10 12:57:28;;;;;;;30.65;6.28;;;;;;;;;;5069814;28;20045;-58
2023/01/10 12:59:55;;;;;;;20.60;6.63;;;;;;;;;;5069995;28;20061;-59
2023/01/10 13:02:24;;;;;;;15.25;5.68;;;;;;;;;;5069522;28;20047;-58
2023/01/10 13:04:57;;;;;;;30.38;6.60;;;;;;;;;;5069488;28;20036;-59
2023/01/10 13:07:27;;;;;;;24.52;5.60;;;;;;;;;;5069463;28;20127;-59
2023/01/10 13:09:53;;;;;;;27.88;6.30;;;;;;;;;;5069690;28;20049;-59
2023/01/10 13:12:26;;;;;;;21.58;7.05;;;;;;;;;;5051488;28;20052;-59
2023/01/10 13:15:00;;;;;;;31.10;5.35;;;;;;;;;;5069362;28;20040;-59
2023/01/10 13:17:32;;;;;;;22.92;5.57;;;;;;;;;;5069288;28;20087;-60
2023/01/10 13:20:16;;;;;;;20.55;4.93;;;;;;;;;;5069251;28;20033;-59
2023/01/10 13:22:44;;;;;;;24.08;5.05;;;;;;;;;;5068911;28;20119;-59
2023/01/10 13:25:24;;;;;;;24.95;5.68;;;;;;;;;;5050401;28;20048;-58
2023/01/10 13:28:03;;;;;;;21.02;5.10;;;;;;;;;;5060000;28;20080;-57
2023/01/10 13:30:36;;;;;;;24.48;5.03;;;;;;;;;;5063770;28;20054;-55
2023/01/10 13:33:04;;;;;;;25.52;5.63;;;;;;;;;;5060819;28;20080;-58
2023/01/10 13:35:41;;;;;;;26.40;4.43;;;;;;;;;;5068378;28;20044;-60
2023/01/10 13:38:16;;;;;;;24.48;5.00;;;;;;;;;;5046521;28;20056;-59
2023/01/10 13:41:05;;;;;;;17.30;4.70;;;6.90;99.90;;;;;;5045698;28;20048;-61
2023/01/10 13:43:36;;;;;;;16.08;3.78;;;;;;;;;;5064000;28;20088;-59
2023/01/10 13:46:18;;;;;;;27.15;5.32;;;;;;;;;;5044012;28;20040;-59
2023/01/10 13:48:49;;;;;;;29.02;4.00;;;6.80;99.90;;;;;;5045817;28;20044;-60
2023/01/10 13:51:20;;;;;;;20.38;4.72;;;;;;;;;;5042504;28;20052;-60
2023/01/10 13:53:47;;;;;;;23.20;5.18;;;;;;;;;;5045162;28;20517;-59
2023/01/10 13:56:31;;;;;;;25.55;4.75;;;;;;;;;;5061796;28;20387;-59
2023/01/10 14:04:29;;;;;;;27.58;4.65;;;;;;;;;;5045788;28;20064;-59
2023/01/10 14:06:59;;;;;;;17.75;4.47;;;;;;;;;;5059392;28;20170;-59
2023/01/10 14:09:28;;;;;;;17.38;3.78;;;;;;;;;;5063856;28;20487;-59
2023/01/10 14:11:57;;;;;;;18.15;4.03;;;;;;;;;;5063128;28;20037;-63
2023/01/10 14:14:26;;;;;;;22.90;4.32;;;;;;;;;;5063397;28;20130;-58
2023/01/10 14:16:55;;;;;;;15.68;4.88;;;;;;;;;;5059368;28;20048;-59
2023/01/10 14:19:26;;;;;;;17.10;3.97;;;;;;;;;;5054076;28;20043;-59
2023/01/10 14:21:54;;;;;;;17.17;3.88;;;7.00;99.90;;;;;;5067742;28;20545;-58
2023/01/10 14:24:28;;;;;;;21.90;4.55;;;;;;;;;;5067649;28;20051;-58
2023/01/10 14:26:55;;;;;;;21.58;5.97;;;;;;;;;;5067756;28;20051;-60
2023/01/10 14:29:21;;;;;;;19.98;3.50;;;;;;;;;;5067721;28;20395;-60
2023/01/10 14:31:49;;;;;;;18.00;3.72;;;;;;;;;;5067626;28;20056;-60
2023/01/10 14:34:22;;;;;;;26.77;4.53;;;7.10;99.90;;;;;;5067755;28;20047;-60
2023/01/10 14:37:07;;;;;;;23.05;4.30;;;;;;;;;;5068021;28;20102;-60
2023/01/10 14:39:33;;;;;;;22.15;4.05;;;;;;;;;;5067762;28;20079;-59
2023/01/10 14:42:02;;;;;;;20.77;3.97;;;6.90;99.90;;;;;;5068111;28;20167;-60
2023/01/10 14:44:34;;;;;;;20.80;4.10;;;;;;;;;;5067954;28;20044;-60
2023/01/10 14:47:01;;;;;;;16.73;3.35;;;;;;;;;;5067392;28;20055;-60
2023/01/10 14:49:35;;;;;;;20.40;3.65;;;7.00;99.90;;;;;;5062075;28;20041;-61